Time;durP1;ratioP1;P1;durP2;ratioP2;P2;SDS_P1;SDS_P2;PMS_P1;PMS_P2;Temp;Humidity;BMP_temperature;BMP_pressure;BME280_temperature;BME280_humidity;BME280_pressure;Samples;Min_cycle;Max_cycle;Signal;HPM_P1;HPM_P2
2021/04/10 00:02:27;;;;;;;17.88;16.17;;;29.50;90.80;;;;;;5089706;28;20230;-50
2021/04/10 00:04:57;;;;;;;18.65;16.77;;;29.50;90.90;;;;;;5089338;28;20713;-54
2021/04/10 00:07:28;;;;;;;17.80;16.20;;;29.50;90.90;;;;;;5090897;28;20254;-53
2021/04/10 00:09:58;;;;;;;17.80;15.90;;;29.50;90.90;;;;;;5092058;28;20201;-50
2021/04/10 00:12:28;;;;;;;16.15;14.55;;;29.50;91.00;;;;;;5091887;28;20251;-53
2021/04/10 00:14:58;;;;;;;15.57;14.07;;;29.60;91.10;;;;;;5091875;28;20298;-49
2021/04/10 00:17:30;;;;;;;15.05;13.65;;;29.60;91.10;;;;;;5091956;28;20283;-54
2021/04/10 00:20:00;;;;;;;15.48;13.98;;;29.60;91.10;;;;;;5091889;28;20215;-51
2021/04/10 00:22:31;;;;;;;15.10;13.60;;;29.70;91.10;;;;;;5086942;28;20644;-52
2021/04/10 00:25:02;;;;;;;15.25;13.82;;;29.80;91.10;;;;;;5091588;28;20551;-51
2021/04/10 00:27:32;;;;;;;14.50;13.10;;;29.80;91.00;;;;;;5089173;28;20645;-49
2021/04/10 00:30:02;;;;;;;14.45;13.05;;;29.80;91.00;;;;;;5091102;28;20204;-51
2021/04/10 00:32:33;;;;;;;13.70;12.38;;;29.90;91.00;;;;;;5092083;28;20295;-53
2021/04/10 00:35:03;;;;;;;14.18;12.77;;;29.90;90.90;;;;;;5091767;28;20204;-50
2021/04/10 00:37:34;;;;;;;13.68;12.38;;;30.00;90.90;;;;;;5091529;28;20612;-50
2021/04/10 00:40:04;;;;;;;13.95;12.52;;;30.00;90.90;;;;;;5091260;28;20236;-51
2021/04/10 00:42:35;;;;;;;13.77;12.50;;;30.10;90.80;;;;;;5089025;28;20200;-52
2021/04/10 00:45:06;;;;;;;13.45;12.20;;;30.20;90.80;;;;;;5091574;28;20569;-51
2021/04/10 00:47:38;;;;;;;13.60;12.30;;;30.20;90.70;;;;;;5091560;28;20540;-54
2021/04/10 00:50:09;;;;;;;12.88;11.52;;;30.30;90.80;;;;;;5091390;28;20205;-54
2021/04/10 00:52:39;;;;;;;12.63;11.32;;;30.30;90.80;;;;;;5090727;28;20212;-54
2021/04/10 00:55:10;;;;;;;13.88;12.55;;;30.40;90.90;;;;;;5028044;28;20211;-51
2021/04/10 00:57:41;;;;;;;13.40;12.10;;;30.50;91.00;;;;;;5028438;28;20209;-51
2021/04/10 01:00:12;;;;;;;13.70;12.40;;;30.60;91.00;;;;;;5028159;28;20829;-52
2021/04/10 01:02:43;;;;;;;12.18;11.05;;;30.60;90.90;;;;;;5027553;28;20217;-52
2021/04/10 01:05:14;;;;;;;12.68;11.57;;;30.70;90.80;;;;;;5028101;28;20296;-53
2021/04/10 01:07:45;;;;;;;14.77;13.35;;;30.80;90.90;;;;;;5028535;28;20206;-51
2021/04/10 01:10:15;;;;;;;15.05;13.75;;;30.80;90.80;;;;;;5027633;28;20206;-54
2021/04/10 01:12:53;;;;;;;16.35;14.75;;;30.90;90.80;;;;;;5022164;28;20231;-52
2021/04/10 01:15:25;;;;;;;15.77;14.32;;;30.90;90.70;;;;;;5005921;28;20211;-51
2021/04/10 01:17:58;;;;;;;16.48;14.82;;;31.00;90.70;;;;;;4949922;29;20209;-50
2021/04/10 01:20:53;;;;;;;16.17;14.57;;;31.10;90.70;;;;;;4930248;29;20238;-53
2021/04/10 01:24:14;;;;;;;15.77;14.18;;;31.20;90.70;;;;;;4930614;29;20220;-52
2021/04/10 01:27:28;;;;;;;15.52;13.98;;;31.30;90.70;;;;;;4972170;28;20222;-56
2021/04/10 01:30:01;;;;;;;16.77;15.27;;;31.30;90.60;;;;;;4987751;28;20295;-53
2021/04/10 01:32:32;;;;;;;16.23;14.55;;;31.40;90.80;;;;;;4988359;28;20200;-52
2021/04/10 01:35:07;;;;;;;16.45;14.85;;;31.50;91.10;;;;;;4988224;28;20208;-52
2021/04/10 01:37:41;;;;;;;16.02;14.50;;;31.60;90.80;;;;;;4987521;28;20223;-53
2021/04/10 01:40:12;;;;;;;16.10;14.70;;;31.70;90.80;;;;;;4988117;28;20798;-54
2021/04/10 01:42:43;;;;;;;15.95;14.38;;;31.80;90.90;;;;;;4963978;28;20216;-55
2021/04/10 01:45:15;;;;;;;15.30;13.65;;;31.80;90.90;;;;;;4987709;28;20327;-52
2021/04/10 01:47:45;;;;;;;14.18;12.88;;;31.90;90.90;;;;;;4987567;28;20582;-52
2021/04/10 01:50:16;;;;;;;14.05;12.85;;;32.00;91.00;;;;;;4988114;28;20702;-54
2021/04/10 01:52:46;;;;;;;14.45;13.05;;;32.10;90.90;;;;;;5008204;28;20268;-53
2021/04/10 01:55:17;;;;;;;14.32;12.93;;;32.20;90.80;;;;;;5007470;28;20535;-52
2021/04/10 01:57:52;;;;;;;13.90;12.68;;;32.20;90.70;;;;;;5007399;28;20218;-54
2021/04/10 02:00:25;;;;;;;14.82;13.50;;;32.30;90.70;;;;;;5007156;28;20611;-50
2021/04/10 02:02:55;;;;;;;14.88;13.45;;;32.40;90.50;;;;;;5002385;28;20295;-51
2021/04/10 02:05:26;;;;;;;15.00;13.70;;;32.50;90.40;;;;;;5007150;28;20324;-51
2021/04/10 02:07:56;;;;;;;13.77;12.57;;;32.50;90.00;;;;;;5004158;28;20208;-50
2021/04/10 02:10:26;;;;;;;13.35;12.05;;;32.50;89.50;;;;;;5006511;28;20207;-52
2021/04/10 02:12:56;;;;;;;15.57;14.00;;;32.60;89.80;;;;;;5023895;28;20243;-50
2021/04/10 02:15:28;;;;;;;14.50;13.02;;;32.60;89.60;;;;;;5087241;28;20200;-53
2021/04/10 02:17:59;;;;;;;13.85;12.55;;;32.60;89.80;;;;;;5086690;28;20685;-54
2021/04/10 02:20:29;;;;;;;14.50;13.13;;;32.70;89.80;;;;;;5086648;28;20555;-50
2021/04/10 02:23:00;;;;;;;15.65;14.25;;;32.80;89.80;;;;;;5086534;28;20320;-54
2021/04/10 02:25:31;;;;;;;12.80;11.70;;;32.80;89.20;;;;;;5080932;28;20258;-53
2021/04/10 02:28:01;;;;;;;12.95;11.80;;;32.80;89.40;;;;;;5086519;28;20205;-51
2021/04/10 02:30:33;;;;;;;11.52;10.45;;;32.90;89.40;;;;;;5086551;28;20197;-50
2021/04/10 02:33:04;;;;;;;12.07;11.07;;;33.00;89.10;;;;;;5086150;28;20217;-49
2021/04/10 02:35:37;;;;;;;11.50;10.50;;;33.10;88.50;;;;;;5026173;28;20619;-50
2021/04/10 02:38:07;;;;;;;11.45;10.35;;;33.10;88.40;;;;;;5026194;28;20210;-53
2021/04/10 02:40:38;;;;;;;12.30;11.30;;;33.20;88.40;;;;;;5026412;28;20229;-54
2021/04/10 02:43:09;;;;;;;12.05;10.95;;;33.30;87.40;;;;;;5025933;28;20635;-49
2021/04/10 02:45:41;;;;;;;12.15;11.05;;;33.40;87.10;;;;;;5026488;28;20959;-51
2021/04/10 02:48:14;;;;;;;13.35;11.85;;;33.50;85.70;;;;;;5026604;28;20206;-52
2021/04/10 02:50:44;;;;;;;12.23;11.23;;;33.60;85.10;;;;;;5026192;28;20230;-52
2021/04/10 02:53:14;;;;;;;11.65;10.65;;;33.70;86.00;;;;;;5025847;28;20211;-52
2021/04/10 02:55:47;;;;;;;12.35;11.15;;;33.80;86.40;;;;;;5026346;28;20277;-50
2021/04/10 02:58:17;;;;;;;12.18;11.07;;;33.90;85.90;;;;;;5021264;28;20681;-54
2021/04/10 03:00:49;;;;;;;13.93;12.63;;;34.00;85.30;;;;;;5025721;28;20203;-54
2021/04/10 03:03:19;;;;;;;14.18;12.95;;;34.10;84.00;;;;;;5026106;28;20198;-51
2021/04/10 03:05:49;;;;;;;12.35;11.25;;;34.20;84.30;;;;;;4976944;28;20217;-56
2021/04/10 03:08:20;;;;;;;11.25;10.15;;;34.30;83.50;;;;;;5026168;28;20650;-53
2021/04/10 03:10:51;;;;;;;11.13;10.23;;;34.30;83.10;;;;;;5025839;28;20222;-56
2021/04/10 03:13:21;;;;;;;12.50;11.50;;;34.40;82.80;;;;;;5015174;28;20254;-52
2021/04/10 03:15:55;;;;;;;11.98;10.88;;;34.50;83.00;;;;;;5006341;28;20215;-51
2021/04/10 03:18:25;;;;;;;11.70;10.80;;;34.50;83.10;;;;;;5004379;28;20199;-51
2021/04/10 03:20:55;;;;;;;12.75;11.60;;;34.60;82.40;;;;;;5006374;28;20235;-53
2021/04/10 03:23:26;;;;;;;11.90;10.93;;;34.70;81.60;;;;;;5006318;28;20199;-52
2021/04/10 03:25:56;;;;;;;12.23;11.23;;;34.70;81.40;;;;;;4948170;29;20593;-53
2021/04/10 03:28:27;;;;;;;12.60;11.57;;;34.90;81.10;;;;;;4947763;29;20209;-53
2021/04/10 03:31:02;;;;;;;13.00;12.02;;;34.90;80.80;;;;;;4890720;29;20251;-54
2021/04/10 03:33:33;;;;;;;12.55;11.55;;;35.00;80.90;;;;;;4890909;29;20721;-50
2021/04/10 03:36:03;;;;;;;13.75;12.63;;;35.10;80.10;;;;;;4897838;28;20654;-52
2021/04/10 03:38:33;;;;;;;13.43;12.43;;;35.20;79.30;;;;;;4950065;29;20256;-50
2021/04/10 03:41:06;;;;;;;14.65;13.25;;;35.30;78.80;;;;;;4951865;29;20217;-52
2021/04/10 03:43:36;;;;;;;14.68;13.48;;;35.40;77.60;;;;;;4952004;29;20233;-53
2021/04/10 03:46:08;;;;;;;13.73;12.63;;;35.40;77.90;;;;;;4951552;29;20217;-50
2021/04/10 03:48:38;;;;;;;15.43;14.02;;;35.50;77.00;;;;;;4951410;29;20256;-50
2021/04/10 03:51:08;;;;;;;15.15;13.85;;;35.60;75.50;;;;;;4951427;29;20228;-55
2021/04/10 03:53:38;;;;;;;14.23;13.07;;;35.70;73.40;;;;;;4947147;29;20236;-55
2021/04/10 03:56:09;;;;;;;13.65;12.55;;;35.70;72.00;;;;;;5002748;28;20541;-54
2021/04/10 03:58:39;;;;;;;15.07;13.77;;;35.80;72.50;;;;;;5052121;28;20259;-52
2021/04/10 04:01:11;;;;;;;14.23;13.02;;;35.80;72.10;;;;;;5051755;28;20202;-53
2021/04/10 04:03:41;;;;;;;13.30;12.10;;;35.90;71.20;;;;;;5052227;28;20620;-53
2021/04/10 04:06:11;;;;;;;11.88;10.98;;;36.00;71.60;;;;;;5052181;28;20659;-54
2021/04/10 04:08:41;;;;;;;11.95;11.02;;;36.00;71.30;;;;;;5052011;28;20213;-56
2021/04/10 04:11:11;;;;;;;12.95;11.95;;;36.00;71.30;;;;;;5051725;28;20244;-50
2021/04/10 04:13:42;;;;;;;13.65;12.55;;;36.10;70.90;;;;;;5063110;28;20237;-52
2021/04/10 04:16:13;;;;;;;13.25;12.25;;;36.20;71.20;;;;;;5069132;28;20212;-53
2021/04/10 04:18:43;;;;;;;14.23;13.13;;;36.20;70.00;;;;;;5069108;28;20235;-56
2021/04/10 04:21:15;;;;;;;15.10;13.88;;;36.30;69.50;;;;;;5068858;28;20211;-56
2021/04/10 04:23:45;;;;;;;14.60;13.50;;;36.40;68.70;;;;;;5068610;28;20262;-50
2021/04/10 04:26:15;;;;;;;13.80;12.70;;;36.40;68.50;;;;;;5069048;28;20224;-51
2021/04/10 04:28:46;;;;;;;12.88;11.88;;;36.50;69.00;;;;;;5069253;28;20216;-56
2021/04/10 04:31:20;;;;;;;14.68;13.48;;;36.50;68.40;;;;;;5068811;28;20343;-55
2021/04/10 04:33:50;;;;;;;14.40;13.10;;;36.50;67.20;;;;;;5067624;28;20858;-52
2021/04/10 04:36:20;;;;;;;14.02;12.93;;;36.60;66.70;;;;;;5068667;28;20205;-54
2021/04/10 04:38:50;;;;;;;14.63;13.52;;;36.50;66.90;;;;;;5069001;28;20205;-55
2021/04/10 04:41:21;;;;;;;15.32;14.13;;;36.50;67.70;;;;;;5068121;28;20284;-54
2021/04/10 04:43:52;;;;;;;15.63;14.43;;;36.60;68.50;;;;;;5068598;28;20212;-53
2021/04/10 04:46:23;;;;;;;15.75;14.55;;;36.60;68.60;;;;;;5071358;28;20750;-50
2021/04/10 04:48:53;;;;;;;15.95;14.63;;;36.70;68.30;;;;;;5070987;28;20202;-50
2021/04/10 04:51:23;;;;;;;15.32;14.15;;;36.80;69.10;;;;;;5071617;28;20806;-50
2021/04/10 04:53:53;;;;;;;15.45;14.20;;;36.90;69.00;;;;;;5069219;28;20282;-56
2021/04/10 04:56:23;;;;;;;15.38;14.18;;;37.00;68.60;;;;;;5069184;28;20274;-52
2021/04/10 04:58:54;;;;;;;17.30;15.80;;;37.10;68.40;;;;;;5069919;28;20206;-51
2021/04/10 05:01:25;;;;;;;15.48;14.27;;;37.20;67.00;;;;;;5067578;28;20198;-53
2021/04/10 05:03:56;;;;;;;15.70;14.50;;;37.20;67.40;;;;;;5069554;28;20293;-51
2021/04/10 05:06:27;;;;;;;16.38;15.07;;;37.30;66.70;;;;;;5069539;28;20200;-50
2021/04/10 05:08:57;;;;;;;15.52;14.32;;;37.40;66.60;;;;;;5069611;28;20259;-51
2021/04/10 05:11:27;;;;;;;16.10;14.82;;;37.50;66.00;;;;;;5067908;28;20217;-54
2021/04/10 05:13:57;;;;;;;15.73;14.43;;;37.60;66.00;;;;;;5085452;28;20311;-50
2021/04/10 05:16:29;;;;;;;15.55;14.38;;;37.60;66.30;;;;;;5088291;28;20197;-51
2021/04/10 05:19:00;;;;;;;15.75;14.35;;;37.60;66.40;;;;;;5025953;28;20218;-55
2021/04/10 05:21:30;;;;;;;15.20;13.68;;;37.60;68.10;;;;;;5026590;28;20191;-54
2021/04/10 05:24:00;;;;;;;13.75;12.65;;;37.60;68.80;;;;;;5024376;28;20689;-53
2021/04/10 05:26:30;;;;;;;15.43;13.93;;;37.50;68.80;;;;;;5026562;28;20615;-53
2021/04/10 05:29:00;;;;;;;15.80;14.23;;;37.50;69.20;;;;;;5025615;28;20198;-50
2021/04/10 05:31:32;;;;;;;15.10;13.60;;;37.30;68.90;;;;;;5026277;28;20223;-53
2021/04/10 05:34:03;;;;;;;16.55;15.05;;;37.20;69.30;;;;;;5024409;28;21973;-53
2021/04/10 05:36:33;;;;;;;22.65;20.52;;;37.10;69.30;;;;;;5026282;28;20193;-51
2021/04/10 05:39:04;;;;;;;17.50;16.00;;;37.00;69.50;;;;;;5023923;28;20210;-50
2021/04/10 05:41:34;;;;;;;19.73;17.73;;;36.80;69.40;;;;;;5025761;28;20285;-53
2021/04/10 05:44:04;;;;;;;17.83;16.08;;;36.70;69.50;;;;;;5071957;28;20201;-53
2021/04/10 05:46:36;;;;;;;16.70;15.10;;;36.60;70.10;;;;;;5090722;28;20276;-52
2021/04/10 05:49:07;;;;;;;14.93;13.68;;;36.50;70.90;;;;;;5090249;28;20552;-56
2021/04/10 05:51:37;;;;;;;16.52;14.93;;;36.30;71.40;;;;;;5089713;28;20224;-53
2021/04/10 05:54:08;;;;;;;21.52;19.52;;;36.20;72.50;;;;;;5090040;28;20201;-54
2021/04/10 05:56:38;;;;;;;16.33;14.85;;;36.10;73.40;;;;;;5090219;28;20196;-51
2021/04/10 05:59:09;;;;;;;13.90;12.60;;;36.00;73.30;;;;;;5089922;28;20197;-53
2021/04/10 06:01:40;;;;;;;14.65;13.27;;;36.00;74.10;;;;;;5090134;28;20192;-51
2021/04/10 06:04:11;;;;;;;14.07;12.68;;;35.90;74.00;;;;;;5090092;28;20329;-53
2021/04/10 06:06:41;;;;;;;15.20;13.80;;;35.80;74.40;;;;;;5027117;28;20261;-51
2021/04/10 06:09:16;;;;;;;13.77;12.65;;;35.60;74.60;;;;;;5026821;28;20209;-52
2021/04/10 06:11:46;;;;;;;11.80;10.70;;;35.50;74.90;;;;;;5024059;28;20229;-53
2021/04/10 06:14:16;;;;;;;11.77;10.63;;;35.40;75.50;;;;;;5025675;28;20326;-51
2021/04/10 06:16:47;;;;;;;11.10;10.27;;;35.30;74.90;;;;;;5026445;28;20203;-55
2021/04/10 06:19:18;;;;;;;13.05;11.80;;;35.10;75.10;;;;;;5026822;28;20206;-49
2021/04/10 06:21:48;;;;;;;13.70;12.38;;;34.90;75.10;;;;;;5026932;28;20203;-49
2021/04/10 06:24:19;;;;;;;13.15;11.95;;;34.80;74.80;;;;;;5026426;28;20195;-49
2021/04/10 06:26:49;;;;;;;15.13;13.73;;;34.60;74.60;;;;;;5027052;28;20848;-50
2021/04/10 06:29:19;;;;;;;13.90;12.80;;;34.50;73.70;;;;;;5026560;28;20241;-51
2021/04/10 06:31:51;;;;;;;14.25;12.98;;;34.40;74.50;;;;;;5073231;28;20221;-49
2021/04/10 06:34:21;;;;;;;14.20;12.80;;;34.30;75.10;;;;;;5089489;28;20200;-49
2021/04/10 06:36:52;;;;;;;16.23;14.82;;;34.20;75.30;;;;;;5089161;28;20223;-51
2021/04/10 06:39:23;;;;;;;16.73;15.32;;;34.20;75.60;;;;;;5089542;28;20283;-53
2021/04/10 06:41:53;;;;;;;16.25;14.88;;;34.20;74.70;;;;;;5089478;28;20593;-50
2021/04/10 06:44:23;;;;;;;15.30;13.90;;;34.10;74.10;;;;;;5089515;28;20327;-51
2021/04/10 06:46:54;;;;;;;13.60;12.48;;;34.00;74.40;;;;;;5089085;28;20201;-51
2021/04/10 06:49:24;;;;;;;12.63;11.63;;;34.00;74.50;;;;;;5089582;28;20205;-49
2021/04/10 06:51:55;;;;;;;12.80;11.75;;;34.00;74.70;;;;;;5083912;28;20738;-49
2021/04/10 06:54:25;;;;;;;14.02;12.68;;;34.00;74.20;;;;;;5089033;28;20625;-54
2021/04/10 06:56:58;;;;;;;12.13;11.02;;;34.00;73.10;;;;;;5089517;28;20338;-54
2021/04/10 06:59:34;;;;;;;10.95;9.95;;;34.00;71.40;;;;;;5088643;28;20653;-53
2021/04/10 07:02:10;;;;;;;10.70;9.90;;;33.90;71.00;;;;;;5089159;28;20193;-53
2021/04/10 07:04:41;;;;;;;12.57;11.38;;;33.80;71.10;;;;;;5089070;28;20192;-53
2021/04/10 07:07:12;;;;;;;12.25;11.15;;;33.80;71.60;;;;;;5088944;28;20232;-51
2021/04/10 07:09:42;;;;;;;10.35;9.45;;;33.70;70.80;;;;;;5088669;28;20219;-55
2021/04/10 07:12:13;;;;;;;9.05;8.15;;;33.60;71.10;;;;;;5088464;28;20298;-54
2021/04/10 07:14:43;;;;;;;8.18;7.57;;;33.50;71.40;;;;;;5088992;28;20217;-52
2021/04/10 07:17:15;;;;;;;9.68;8.77;;;33.50;72.00;;;;;;5088549;28;20197;-52
2021/04/10 07:19:45;;;;;;;9.88;9.05;;;33.40;72.30;;;;;;5088728;28;20599;-52
2021/04/10 07:22:16;;;;;;;9.65;8.75;;;33.30;72.50;;;;;;5086346;28;20235;-51
2021/04/10 07:24:48;;;;;;;7.03;6.53;;;33.20;73.30;;;;;;5084631;28;20193;-53
2021/04/10 07:27:19;;;;;;;6.20;5.60;;;33.20;73.30;;;;;;5089415;28;20203;-49
2021/04/10 07:29:50;;;;;;;5.38;4.97;;;33.10;73.30;;;;;;5089137;28;20228;-53
2021/04/10 07:32:33;;;;;;;4.68;4.28;;;33.00;73.20;;;;;;5089049;28;20957;-50
2021/04/10 07:35:04;;;;;;;4.75;4.28;;;32.90;73.90;;;;;;5084393;28;20257;-53
2021/04/10 07:37:38;;;;;;;5.57;5.05;;;32.70;74.10;;;;;;5089162;28;20725;-51
2021/04/10 07:40:10;;;;;;;4.40;4.10;;;32.70;74.30;;;;;;5088618;28;20196;-53
2021/04/10 07:42:41;;;;;;;5.90;5.38;;;32.50;73.90;;;;;;5085196;28;20887;-49
2021/04/10 07:45:25;;;;;;;5.05;4.65;;;32.40;74.60;;;;;;5089038;28;20197;-50
2021/04/10 07:48:03;;;;;;;5.20;4.70;;;32.30;75.40;;;;;;5088558;28;20289;-51
2021/04/10 07:50:34;;;;;;;7.05;5.93;;;32.20;76.10;;;;;;5087055;28;20239;-53
2021/04/10 07:53:19;;;;;;;6.75;4.78;;;32.10;76.20;;;;;;5088450;28;20221;-53
2021/04/10 07:55:50;;;;;;;4.68;4.28;;;32.10;77.90;;;;;;5088778;28;20207;-53
2021/04/10 07:58:37;;;;;;;4.50;3.92;;;32.00;76.90;;;;;;5085985;28;20200;-54
2021/04/10 08:01:08;;;;;;;4.35;3.95;;;31.90;77.00;;;;;;5089015;28;20207;-52
2021/04/10 08:03:40;;;;;;;4.03;3.65;;;31.80;76.90;;;;;;5088837;28;20738;-52
2021/04/10 08:06:19;;;;;;;4.53;3.92;;;31.70;77.50;;;;;;5088604;28;20689;-53
2021/04/10 08:08:52;;;;;;;4.55;4.15;;;31.70;78.50;;;;;;5088624;28;20197;-54
2021/04/10 08:11:33;;;;;;;4.03;3.72;;;31.60;78.40;;;;;;5084975;28;20223;-53
2021/04/10 08:14:05;;;;;;;3.97;3.67;;;31.60;79.80;;;;;;5088552;28;20237;-52
2021/04/10 08:16:39;;;;;;;5.10;4.63;;;31.50;79.50;;;;;;5088375;28;20281;-51
2021/04/10 08:19:11;;;;;;;5.03;4.53;;;31.50;79.80;;;;;;5088173;28;20251;-50
2021/04/10 08:21:50;;;;;;;5.13;4.72;;;31.50;80.50;;;;;;5085854;28;20189;-51
2021/04/10 08:24:31;;;;;;;4.47;4.07;;;31.40;79.80;;;;;;5087565;28;20254;-53
2021/04/10 08:27:02;;;;;;;4.82;4.43;;;31.40;79.70;;;;;;5092367;28;20199;-50
2021/04/10 08:29:32;;;;;;;5.40;4.90;;;31.40;79.60;;;;;;5091363;28;20894;-52
2021/04/10 08:32:03;;;;;;;5.07;4.68;;;31.40;79.80;;;;;;5092212;28;20726;-49
2021/04/10 08:34:34;;;;;;;5.75;5.20;;;31.30;80.30;;;;;;5092727;28;20212;-52
2021/04/10 08:37:07;;;;;;;7.97;6.03;;;31.30;80.40;;;;;;5092340;28;20619;-48
2021/04/10 08:39:38;;;;;;;5.72;4.95;;;31.20;80.60;;;;;;5091760;28;20201;-50
2021/04/10 08:42:10;;;;;;;6.35;5.78;;;31.20;81.00;;;;;;5092139;28;20189;-52
2021/04/10 08:44:40;;;;;;;6.43;5.82;;;31.20;81.50;;;;;;5023492;28;20547;-51
2021/04/10 08:47:11;;;;;;;6.45;5.85;;;31.10;81.80;;;;;;5028386;28;20210;-51
2021/04/10 08:49:45;;;;;;;5.82;5.32;;;31.20;82.30;;;;;;5008875;28;20203;-54
2021/04/10 08:52:16;;;;;;;5.30;4.80;;;31.20;82.50;;;;;;5008465;28;20242;-49
2021/04/10 08:54:46;;;;;;;5.18;4.78;;;31.20;82.30;;;;;;5008769;28;20730;-52
2021/04/10 08:57:17;;;;;;;5.75;5.25;;;31.20;82.30;;;;;;5008124;28;20206;-52
2021/04/10 08:59:47;;;;;;;6.10;5.63;;;31.20;82.30;;;;;;5005647;28;20298;-49
2021/04/10 09:02:19;;;;;;;6.82;6.22;;;31.20;82.50;;;;;;5007871;28;20210;-50
2021/04/10 09:05:00;;;;;;;7.80;7.07;;;31.20;82.40;;;;;;5008670;28;20572;-50
2021/04/10 09:08:09;;;;;;;7.65;7.05;;;31.20;82.90;;;;;;5008642;28;20242;-50
2021/04/10 09:10:48;;;;;;;6.95;6.43;;;31.20;82.90;;;;;;5007939;28;20223;-52
2021/04/10 09:13:41;;;;;;;7.63;7.03;;;31.20;83.40;;;;;;5007877;28;20239;-50
2021/04/10 09:16:37;;;;;;;7.68;6.68;;;31.20;83.80;;;;;;5047413;28;20210;-55
2021/04/10 09:19:18;;;;;;;7.63;7.03;;;31.20;83.90;;;;;;5065502;28;20708;-51
2021/04/10 09:21:50;;;;;;;8.40;7.70;;;31.20;83.70;;;;;;5087767;28;20208;-51
2021/04/10 09:24:31;;;;;;;7.85;7.22;;;31.20;83.50;;;;;;5088017;28;20205;-51
2021/04/10 09:27:06;;;;;;;9.18;8.27;;;31.20;84.20;;;;;;5090789;28;20211;-52
2021/04/10 09:29:49;;;;;;;7.35;6.65;;;31.20;84.10;;;;;;5090969;28;20844;-51
2021/04/10 09:32:38;;;;;;;7.93;7.22;;;31.30;84.90;;;;;;5091000;28;20217;-51
2021/04/10 09:35:12;;;;;;;7.80;7.20;;;31.30;85.40;;;;;;5088520;28;20402;-51
2021/04/10 09:37:53;;;;;;;7.95;6.68;;;31.30;85.30;;;;;;5091366;28;20203;-53
2021/04/10 09:40:41;;;;;;;8.80;7.93;;;31.30;85.70;;;;;;5090704;28;20436;-53
2021/04/10 09:43:13;;;;;;;8.45;7.75;;;31.40;85.50;;;;;;5088928;28;20667;-51
2021/04/10 09:45:43;;;;;;;9.40;8.50;;;31.40;85.40;;;;;;5087933;28;20196;-52
2021/04/10 09:48:36;;;;;;;8.50;7.88;;;31.40;85.40;;;;;;5086426;28;20207;-50
2021/04/10 09:51:12;;;;;;;8.52;7.82;;;31.40;86.30;;;;;;5088200;28;20200;-52
2021/04/10 09:53:50;;;;;;;8.93;8.18;;;31.50;86.00;;;;;;5090153;28;20696;-51
2021/04/10 09:56:20;;;;;;;9.73;8.82;;;31.50;85.70;;;;;;5090467;28;20656;-50
2021/04/10 09:58:55;;;;;;;9.45;8.65;;;31.50;85.60;;;;;;5090709;28;20200;-55
2021/04/10 10:01:27;;;;;;;10.20;9.13;;;31.50;85.60;;;;;;5090652;28;20202;-50
2021/04/10 10:03:57;;;;;;;10.27;9.38;;;31.60;85.60;;;;;;5090167;28;20671;-52
2021/04/10 10:06:30;;;;;;;10.55;9.65;;;31.60;85.40;;;;;;5090131;28;20308;-53
2021/04/10 10:09:02;;;;;;;10.68;9.57;;;31.60;85.40;;;;;;5090367;28;20561;-53
2021/04/10 10:11:32;;;;;;;9.88;9.07;;;31.60;85.50;;;;;;5085798;28;20235;-50
2021/04/10 10:14:12;;;;;;;10.07;9.07;;;31.60;85.50;;;;;;5085384;28;20240;-54
2021/04/10 10:16:42;;;;;;;10.40;9.50;;;31.60;85.50;;;;;;5088984;28;20201;-54
2021/04/10 10:19:18;;;;;;;9.63;8.73;;;31.60;85.60;;;;;;5046875;28;20259;-52
2021/04/10 10:21:48;;;;;;;9.35;8.45;;;31.60;86.00;;;;;;5044192;28;20723;-53
2021/04/10 10:24:23;;;;;;;9.57;8.77;;;31.60;85.80;;;;;;5045350;28;20617;-54
2021/04/10 10:26:53;;;;;;;9.18;8.38;;;31.60;86.10;;;;;;5046762;28;20209;-53
2021/04/10 10:29:23;;;;;;;8.43;7.78;;;31.60;86.10;;;;;;5046930;28;20650;-51
2021/04/10 10:31:55;;;;;;;9.75;8.82;;;31.60;86.30;;;;;;5006471;28;20707;-54
2021/04/10 10:34:27;;;;;;;9.55;8.75;;;31.60;86.30;;;;;;5006340;28;20237;-50
2021/04/10 10:36:58;;;;;;;9.52;8.73;;;31.60;86.20;;;;;;5004184;28;20242;-54
2021/04/10 10:39:30;;;;;;;9.50;8.65;;;31.70;86.40;;;;;;5006882;28;20207;-53
2021/04/10 10:42:01;;;;;;;8.55;7.85;;;31.70;86.70;;;;;;5006549;28;20720;-55
2021/04/10 10:44:34;;;;;;;10.18;9.27;;;31.70;86.80;;;;;;5038476;28;20716;-55
2021/04/10 10:47:05;;;;;;;10.73;9.48;;;31.70;86.90;;;;;;5045868;28;20209;-51
2021/04/10 10:49:35;;;;;;;10.40;9.50;;;31.70;86.90;;;;;;5046079;28;20275;-53
2021/04/10 10:52:07;;;;;;;9.77;8.77;;;31.80;86.60;;;;;;5046230;28;20671;-50
2021/04/10 10:54:39;;;;;;;9.40;8.60;;;31.80;86.60;;;;;;5046345;28;20202;-53
2021/04/10 10:57:10;;;;;;;8.57;7.88;;;31.80;86.90;;;;;;5046075;28;20216;-54
2021/04/10 10:59:57;;;;;;;8.38;7.68;;;31.80;86.80;;;;;;5041974;28;20234;-53
2021/04/10 11:02:27;;;;;;;9.50;8.60;;;31.90;87.10;;;;;;5059592;28;20266;-52
2021/04/10 11:04:58;;;;;;;8.95;8.25;;;31.80;87.30;;;;;;5089835;28;20660;-49
2021/04/10 11:07:28;;;;;;;9.35;8.60;;;31.90;87.20;;;;;;5089820;28;20658;-53
2021/04/10 11:09:59;;;;;;;10.82;9.82;;;31.90;87.10;;;;;;5090646;28;20225;-52
2021/04/10 11:12:30;;;;;;;10.68;9.77;;;31.90;87.30;;;;;;5088923;28;20268;-50
2021/04/10 11:15:01;;;;;;;10.10;9.30;;;31.90;87.10;;;;;;5089957;28;20197;-51
2021/04/10 11:17:31;;;;;;;9.02;8.13;;;31.90;87.30;;;;;;5089657;28;20893;-54
2021/04/10 11:20:03;;;;;;;9.10;8.40;;;31.90;87.40;;;;;;5089514;28;20208;-51
2021/04/10 11:22:33;;;;;;;9.65;8.85;;;31.90;87.40;;;;;;5083883;28;20201;-52
2021/04/10 11:25:04;;;;;;;10.73;9.82;;;31.90;87.60;;;;;;5045501;28;20209;-51
2021/04/10 11:27:35;;;;;;;8.55;7.75;;;31.90;87.60;;;;;;5045223;28;20569;-50
2021/04/10 11:30:10;;;;;;;10.10;9.18;;;31.80;87.40;;;;;;5045899;28;20214;-56
2021/04/10 11:32:42;;;;;;;9.35;8.63;;;31.90;87.70;;;;;;5045892;28;20261;-53
2021/04/10 11:35:16;;;;;;;9.95;9.10;;;31.80;87.80;;;;;;5045529;28;20319;-54
2021/04/10 11:37:48;;;;;;;10.20;9.20;;;31.80;88.20;;;;;;5045638;28;20209;-54
2021/04/10 11:40:29;;;;;;;10.18;9.23;;;31.70;88.20;;;;;;5045334;28;20225;-49
2021/04/10 11:43:01;;;;;;;10.63;9.75;;;31.70;88.70;;;;;;5040833;28;20202;-55
2021/04/10 11:45:32;;;;;;;12.85;11.60;;;31.70;88.30;;;;;;5045314;28;20206;-56
2021/04/10 11:48:10;;;;;;;12.88;11.57;;;31.60;88.40;;;;;;5045625;28;20729;-52
2021/04/10 11:50:41;;;;;;;11.82;10.68;;;31.70;88.90;;;;;;5042438;28;20202;-55
2021/04/10 11:53:15;;;;;;;11.25;10.25;;;31.60;88.80;;;;;;5045547;28;20245;-52
2021/04/10 11:55:47;;;;;;;10.57;9.55;;;31.60;89.20;;;;;;5060539;28;20555;-54
2021/04/10 11:58:28;;;;;;;11.68;10.68;;;31.60;89.20;;;;;;5089132;28;20191;-54
2021/04/10 12:01:08;;;;;;;10.40;9.50;;;31.60;89.20;;;;;;5049417;28;20212;-53
2021/04/10 12:03:53;;;;;;;11.95;10.98;;;31.60;89.90;;;;;;5049605;28;20241;-50
2021/04/10 12:06:33;;;;;;;10.85;9.95;;;31.60;89.80;;;;;;5046273;28;20214;-56
2021/04/10 12:09:07;;;;;;;10.85;9.95;;;31.50;89.80;;;;;;5045549;28;20206;-52
2021/04/10 12:11:39;;;;;;;11.77;10.38;;;31.50;89.60;;;;;;5049105;28;20296;-52
2021/04/10 12:14:10;;;;;;;11.40;10.35;;;31.40;89.70;;;;;;5031358;28;20239;-55
2021/04/10 12:16:40;;;;;;;11.18;10.15;;;31.50;89.90;;;;;;5029342;28;20206;-51
2021/04/10 12:19:10;;;;;;;11.00;10.10;;;31.40;89.80;;;;;;5028912;28;20203;-51
2021/04/10 12:21:41;;;;;;;11.50;10.57;;;31.40;89.90;;;;;;5029391;28;20209;-54
2021/04/10 12:24:12;;;;;;;10.57;9.57;;;31.40;89.90;;;;;;5029820;28;20277;-56
2021/04/10 12:26:43;;;;;;;10.32;9.45;;;31.30;89.80;;;;;;5051673;28;20190;-51
2021/04/10 12:29:13;;;;;;;9.93;9.13;;;31.30;90.00;;;;;;5051017;28;20199;-55
2021/04/10 12:31:44;;;;;;;10.45;9.55;;;31.30;89.80;;;;;;5051881;28;20287;-49
2021/04/10 12:34:14;;;;;;;10.10;9.30;;;31.30;90.00;;;;;;5046814;28;20684;-50
2021/04/10 12:36:45;;;;;;;11.65;10.48;;;31.20;90.00;;;;;;5051862;28;20252;-51
2021/04/10 12:39:15;;;;;;;10.45;9.55;;;31.20;90.00;;;;;;5051522;28;20216;-53
2021/04/10 12:41:46;;;;;;;11.48;10.48;;;31.20;90.00;;;;;;5050926;28;20214;-50
2021/04/10 12:44:18;;;;;;;11.18;10.13;;;31.20;90.20;;;;;;5051479;28;20194;-52
2021/04/10 12:46:48;;;;;;;12.05;11.00;;;31.20;90.20;;;;;;5051558;28;20191;-52
2021/04/10 12:49:18;;;;;;;12.07;11.07;;;31.20;90.30;;;;;;5048218;28;20195;-50
2021/04/10 12:51:49;;;;;;;12.15;11.05;;;31.10;90.30;;;;;;5049958;28;20316;-52
2021/04/10 12:54:19;;;;;;;11.90;10.95;;;31.10;90.40;;;;;;5051284;28;20210;-53
2021/04/10 12:56:50;;;;;;;12.02;10.95;;;31.10;90.50;;;;;;5051709;28;20214;-52
2021/04/10 12:59:21;;;;;;;11.40;10.50;;;31.10;90.60;;;;;;5051086;28;20202;-52
2021/04/10 13:01:51;;;;;;;11.07;9.98;;;31.10;90.60;;;;;;5050799;28;20191;-52